Strona główna
METAR-TAF:

METAR-TAF

Lotnisko :

Port lotniczy Tarakan-Juwata

Tarakan, Indonezja

Szerokość geograficzna: 03-19-36N, Długość geograficzna: 117-33-56E, wysokość: 6 m

Aktualna obserwacja pogody

Raport powstał 1 godzina i 10 minut temu, godzina 03:00 UTC
Wiatr 3 kt od zachód
Temperatura 30°C
Wilgotność 79%
Ciśnienie 1010 hPa
Widzialność 10 km lub więcej
Rozproszone chmury na wysokości 1500 ft

METAR: WAQQ 110300Z 27003KT 9999 SCT015 30/26 Q1010

czas: 11:10 (04:10 UTC)

Prognoza

Raport powstał 5 godziny i 10 minut temu, godzina 23:00 UTC
Prognoza ważna od 11 godzina 00 UTC do 11 godzina 12 UTC
Wiatr 5 kt od zachodnio-południowy zachód
Widzialność 10 km lub więcej
Rozproszone chmury na wysokości 1500 ft
Przejściowo
od 11 godzina 01 UTC do 11 godzina 04 UTC
Mało chmury na wysokości 1500 ft, Cumulonimbus.

TAF: WAQQ 102300Z 1100/1112 24005KT 9999 SCT015 TEMPO 1101/1104 FEW015CB

Obserwacja i prognoza pogody dla ponad 4000 lotnisk (raport METAR i TAF).

Dostępne stacje oznaczono żółtymi i czerwonymi punktami na mapie.

Najedź kursorem aby zobaczyć nazwę stacji.

Kliknij aby zobaczyć obserwacje i prognozy pogody.

Aby zmienić mapę: kliknij na zielony przycisk z czarnym krzyżykiem, aby powiększyć; na zielony przycisk z myślnikiem, aby pomniejszyć; na zielone strzałki, aby przejść do map sąsiednich.


METAR-TAF: